Terminal Aerodrome Forecast
Issued by NWS

Home | Current Version | Previous Version | Text Only | Print | Product List | Glossary Off
Versions: 1 2 3 4 5 6 7 8 9 10 11 12 13 14

000
FTUS43 KMPX 021720
TAFRNH
TAF
KRNH 021720Z 0218/0318 20010KT P6SM FEW090
     FM030100 18007KT P6SM SCT250
     FM031500 17008KT P6SM SCT050 BKN090=

USA.gov is the U.S. government's official web portal to all federal, state and local government web resources and services.